createdAt,value
2018-09-03T00:02:27.572Z,93.40
2018-09-03T00:04:55.088Z,93.50
2018-09-03T00:07:22.644Z,93.40
2018-09-03T00:09:50.159Z,93.40
2018-09-03T00:12:17.721Z,93.60
2018-09-03T00:14:45.259Z,93.70
2018-09-03T00:17:12.864Z,93.80
2018-09-03T00:19:40.393Z,93.90
2018-09-03T00:22:07.985Z,93.90
2018-09-03T00:24:35.538Z,93.90
2018-09-03T00:27:03.068Z,93.90
2018-09-03T00:29:30.616Z,94.10
2018-09-03T00:32:03.809Z,93.90
2018-09-03T00:34:36.982Z,94.00
2018-09-03T00:37:10.195Z,94.10
2018-09-03T00:39:43.388Z,94.20
2018-09-03T00:42:16.578Z,94.10
2018-09-03T00:44:49.677Z,94.10
2018-09-03T00:47:17.276Z,94.20
2018-09-03T00:49:44.912Z,94.30
2018-09-03T00:52:12.467Z,94.20
2018-09-03T00:54:40.131Z,94.10
2018-09-03T00:57:08.003Z,94.10
2018-09-03T00:59:35.589Z,94.20
2018-09-03T01:02:03.312Z,94.20
2018-09-03T01:04:30.900Z,94.40
2018-09-03T01:06:58.438Z,94.50
2018-09-03T01:09:26.011Z,94.50
2018-09-03T01:11:53.553Z,94.30
2018-09-03T01:14:21.136Z,94.30
2018-09-03T01:16:48.717Z,94.30
2018-09-03T01:19:16.294Z,94.30
2018-09-03T01:21:43.827Z,94.30
2018-09-03T01:24:11.417Z,94.40
2018-09-03T01:26:39.045Z,94.40
2018-09-03T01:29:06.658Z,94.50
2018-09-03T01:31:34.229Z,94.50
2018-09-03T01:34:01.792Z,94.40
2018-09-03T01:36:29.367Z,94.40
2018-09-03T01:38:56.891Z,94.50
2018-09-03T01:41:24.453Z,94.40
2018-09-03T01:43:52.004Z,94.30
2018-09-03T01:46:19.579Z,94.30
2018-09-03T01:48:47.126Z,94.30
2018-09-03T01:51:14.709Z,94.20
2018-09-03T01:53:42.256Z,94.10
2018-09-03T01:56:10.459Z,93.90
2018-09-03T01:58:38.046Z,93.90
2018-09-03T02:01:05.633Z,93.60
2018-09-03T02:03:33.312Z,93.80
2018-09-03T02:06:00.852Z,93.90
2018-09-03T02:08:28.756Z,94.00
2018-09-03T02:10:56.288Z,94.10
2018-09-03T02:13:23.860Z,94.20
2018-09-03T02:15:51.418Z,94.30
2018-09-03T02:18:18.986Z,94.50
2018-09-03T02:20:46.558Z,94.40
2018-09-03T02:23:14.095Z,94.30
2018-09-03T02:25:41.737Z,94.30
2018-09-03T02:28:09.278Z,94.10
2018-09-03T02:30:36.863Z,94.10
2018-09-03T02:33:04.511Z,93.90
2018-09-03T02:35:32.076Z,93.90
2018-09-03T02:37:59.664Z,93.90
2018-09-03T02:40:27.212Z,93.90
2018-09-03T02:42:54.747Z,93.90
2018-09-03T02:45:22.328Z,93.90
2018-09-03T02:47:49.900Z,93.90
2018-09-03T02:50:17.471Z,93.80
2018-09-03T02:52:45.000Z,93.70
2018-09-03T02:55:12.565Z,93.80
2018-09-03T02:57:40.317Z,93.80
2018-09-03T03:00:07.945Z,93.80
2018-09-03T03:02:35.492Z,93.80
2018-09-03T03:05:03.067Z,93.80
2018-09-03T03:07:30.648Z,93.80
2018-09-03T03:09:58.242Z,93.80
2018-09-03T03:12:25.832Z,93.90
2018-09-03T03:14:56.364Z,93.80
2018-09-03T03:17:24.064Z,94.00
2018-09-03T03:19:51.652Z,94.00
2018-09-03T03:22:19.736Z,94.10
2018-09-03T03:24:47.362Z,94.00
2018-09-03T03:27:15.486Z,94.00
2018-09-03T03:29:43.111Z,94.00
2018-09-03T03:32:10.794Z,94.00
2018-09-03T03:34:38.362Z,93.90
2018-09-03T03:37:06.137Z,93.90
2018-09-03T03:39:33.700Z,93.90
2018-09-03T03:42:01.301Z,93.90
2018-09-03T03:44:28.866Z,93.80
2018-09-03T03:46:56.472Z,93.80
2018-09-03T03:49:24.046Z,93.80
2018-09-03T03:51:51.776Z,93.80
2018-09-03T03:54:19.335Z,93.70
2018-09-03T03:56:46.898Z,93.90
2018-09-03T03:59:14.437Z,93.80
2018-09-03T04:01:41.990Z,93.80
2018-09-03T04:04:09.609Z,93.80
2018-09-03T04:06:37.140Z,93.80
2018-09-03T04:09:06.852Z,93.80
2018-09-03T04:11:34.379Z,93.70
2018-09-03T04:14:01.963Z,93.70
2018-09-03T04:16:29.591Z,93.80
2018-09-03T04:18:57.205Z,93.80
2018-09-03T04:21:25.075Z,93.80
2018-09-03T04:23:52.694Z,93.90
2018-09-03T04:26:20.239Z,94.00
2018-09-03T04:28:47.799Z,93.90
2018-09-03T04:31:15.346Z,93.90
2018-09-03T04:33:42.923Z,93.90
2018-09-03T04:36:10.604Z,93.80
2018-09-03T04:38:38.194Z,93.80
2018-09-03T04:41:05.757Z,93.80
2018-09-03T04:43:33.298Z,93.80
2018-09-03T04:46:00.896Z,93.90
2018-09-03T04:48:28.442Z,94.10
2018-09-03T04:50:56.061Z,94.20
2018-09-03T04:53:23.609Z,94.20
2018-09-03T04:55:51.402Z,94.20
2018-09-03T04:58:18.987Z,94.20
2018-09-03T05:00:46.672Z,94.40
2018-09-03T05:03:14.269Z,94.60
2018-09-03T05:05:41.853Z,94.60
2018-09-03T05:08:09.422Z,94.70
2018-09-03T05:10:37.011Z,94.80
2018-09-03T05:13:04.611Z,94.80
2018-09-03T05:15:32.271Z,94.60
2018-09-03T05:18:00.237Z,94.40
2018-09-03T05:20:27.974Z,94.30
2018-09-03T05:22:56.168Z,94.20
2018-09-03T05:25:23.844Z,94.20
2018-09-03T05:27:51.351Z,94.20
2018-09-03T05:30:18.913Z,94.20
2018-09-03T05:32:46.427Z,94.20
2018-09-03T05:35:14.289Z,94.20
2018-09-03T05:37:41.991Z,94.20
2018-09-03T05:40:09.745Z,94.10
2018-09-03T05:42:37.293Z,94.00
2018-09-03T05:45:05.006Z,93.80
2018-09-03T05:47:32.578Z,93.50
2018-09-03T05:50:00.173Z,93.30
2018-09-03T05:52:27.855Z,93.30
2018-09-03T05:54:55.386Z,93.10
2018-09-03T05:57:22.960Z,93.20
2018-09-03T05:59:50.540Z,93.10
2018-09-03T06:02:18.162Z,93.10
2018-09-03T06:04:45.674Z,93.20
2018-09-03T06:07:13.238Z,93.10
2018-09-03T06:09:40.737Z,93.00
2018-09-03T06:12:08.305Z,92.90
2018-09-03T06:14:35.826Z,92.80
2018-09-03T06:17:03.487Z,92.80
2018-09-03T06:19:31.016Z,92.80
2018-09-03T06:21:58.793Z,92.70
2018-09-03T06:24:26.349Z,92.70
2018-09-03T06:26:53.976Z,92.50
2018-09-03T06:29:21.512Z,92.50
2018-09-03T06:31:49.174Z,92.10
2018-09-03T06:34:16.713Z,92.30
2018-09-03T06:36:44.313Z,92.60
2018-09-03T06:39:12.025Z,92.70
2018-09-03T06:41:39.624Z,92.80
2018-09-03T06:44:07.181Z,92.80
2018-09-03T06:46:34.697Z,92.70
2018-09-03T06:49:02.278Z,92.60
2018-09-03T06:51:29.850Z,92.60
2018-09-03T06:53:57.587Z,92.40
2018-09-03T06:56:25.338Z,92.50
2018-09-03T06:58:52.919Z,92.30
2018-09-03T07:01:20.529Z,92.30
2018-09-03T07:03:48.176Z,92.50
2018-09-03T07:06:15.780Z,92.10
2018-09-03T07:08:43.589Z,92.10
2018-09-03T07:11:11.912Z,92.20
2018-09-03T07:13:39.764Z,92.10
2018-09-03T07:16:07.332Z,91.80
2018-09-03T07:18:34.972Z,91.60
2018-09-03T07:21:02.545Z,91.60
2018-09-03T07:23:30.111Z,91.20
2018-09-03T07:25:57.775Z,90.80
2018-09-03T07:28:25.396Z,90.70
2018-09-03T07:30:52.924Z,89.40
2018-09-03T07:33:20.735Z,89.00
2018-09-03T07:35:48.548Z,87.90
2018-09-03T07:38:16.090Z,87.30
2018-09-03T07:40:43.691Z,87.10
2018-09-03T07:43:11.396Z,86.80
2018-09-03T07:45:39.174Z,86.40
2018-09-03T07:48:06.857Z,86.20
2018-09-03T07:50:34.455Z,85.60
2018-09-03T07:53:02.029Z,84.50
2018-09-03T07:55:29.649Z,85.10
2018-09-03T07:57:57.203Z,85.50
2018-09-03T08:00:24.858Z,85.30
2018-09-03T08:02:52.516Z,85.10
2018-09-03T08:05:20.061Z,84.90
2018-09-03T08:07:47.591Z,85.80
2018-09-03T08:10:15.391Z,86.60
2018-09-03T08:12:42.993Z,86.60
2018-09-03T08:15:10.573Z,86.80
2018-09-03T08:17:38.170Z,87.10
2018-09-03T08:20:05.922Z,87.50
2018-09-03T08:22:33.455Z,88.20
2018-09-03T08:25:01.065Z,88.80
2018-09-03T08:27:28.676Z,88.40
2018-09-03T08:29:56.376Z,87.30
2018-09-03T08:32:23.963Z,87.50
2018-09-03T08:34:51.614Z,86.60
2018-09-03T08:37:19.174Z,85.80
2018-09-03T08:39:46.878Z,86.20
2018-09-03T08:42:14.681Z,86.60
2018-09-03T08:44:42.351Z,86.60
2018-09-03T08:47:09.868Z,86.20
2018-09-03T08:49:37.402Z,85.10
2018-09-03T08:52:05.358Z,83.60
2018-09-03T08:54:32.944Z,83.20
2018-09-03T08:57:00.520Z,83.40
2018-09-03T08:59:28.101Z,82.80
2018-09-03T09:01:55.674Z,82.30
2018-09-03T09:04:23.227Z,81.90
2018-09-03T09:06:50.799Z,80.20
2018-09-03T09:09:18.367Z,79.70
2018-09-03T09:11:46.103Z,77.80
2018-09-03T09:14:13.647Z,77.60
2018-09-03T09:16:41.220Z,77.30
2018-09-03T09:19:08.900Z,77.30
2018-09-03T09:21:36.460Z,75.60
2018-09-03T09:24:04.149Z,73.50
2018-09-03T09:26:31.792Z,72.60
2018-09-03T09:28:59.412Z,71.50
2018-09-03T09:31:27.008Z,70.40
2018-09-03T09:33:54.779Z,67.40
2018-09-03T09:36:22.390Z,67.20
2018-09-03T09:38:49.930Z,65.30
2018-09-03T09:41:17.668Z,63.50
2018-09-03T09:43:45.172Z,61.80
2018-09-03T09:46:12.704Z,55.80
2018-09-03T09:48:40.254Z,53.40
2018-09-03T09:51:07.864Z,52.90
2018-09-03T09:53:35.444Z,52.30
2018-09-03T09:56:03.034Z,52.90
2018-09-03T09:58:30.671Z,53.70
2018-09-03T10:01:03.814Z,54.00
2018-09-03T10:03:31.535Z,55.70
2018-09-03T10:05:59.109Z,56.40
2018-09-03T10:08:26.663Z,58.00
2018-09-03T10:10:54.211Z,58.60
2018-09-03T10:13:21.772Z,59.60
2018-09-03T10:15:49.358Z,60.50
2018-09-03T10:18:16.909Z,62.20
2018-09-03T10:20:44.454Z,63.80
2018-09-03T10:23:12.039Z,65.50
2018-09-03T10:25:39.611Z,66.30
2018-09-03T10:28:07.125Z,67.70
2018-09-03T10:30:34.773Z,69.20
2018-09-03T10:33:03.508Z,69.20
2018-09-03T10:35:31.241Z,69.10
2018-09-03T10:37:58.811Z,68.70
2018-09-03T10:40:26.580Z,70.20
2018-09-03T10:42:55.373Z,71.50
2018-09-03T10:45:22.919Z,71.80
2018-09-03T10:47:50.811Z,73.00
2018-09-03T10:50:18.461Z,73.30
2018-09-03T10:52:46.205Z,74.80
2018-09-03T10:55:13.883Z,75.80
2018-09-03T10:57:41.463Z,76.70
2018-09-03T11:00:09.005Z,77.30
2018-09-03T11:02:36.516Z,76.90
2018-09-03T11:05:04.083Z,77.10
2018-09-03T11:07:31.599Z,77.40
2018-09-03T11:09:59.150Z,76.30
2018-09-03T11:12:26.678Z,75.90
2018-09-03T11:14:54.211Z,75.80
2018-09-03T11:17:21.738Z,74.80
2018-09-03T11:19:54.736Z,75.90
2018-09-03T11:22:22.565Z,76.50
2018-09-03T11:24:50.044Z,77.40
2018-09-03T11:27:17.599Z,75.60
2018-09-03T11:29:45.174Z,76.10
2018-09-03T11:32:12.713Z,74.50
2018-09-03T11:34:40.305Z,75.60
2018-09-03T11:37:07.981Z,75.40
2018-09-03T11:39:35.584Z,73.70
2018-09-03T11:42:03.228Z,74.50
2018-09-03T11:44:30.755Z,73.20
2018-09-03T11:46:58.297Z,75.60
2018-09-03T11:49:25.928Z,74.60
2018-09-03T11:51:53.463Z,75.40
2018-09-03T11:54:21.082Z,74.10
2018-09-03T11:56:48.591Z,70.20
2018-09-03T11:59:16.168Z,71.10
2018-09-03T12:01:43.720Z,70.00
2018-09-03T12:04:11.266Z,70.40
2018-09-03T12:06:38.802Z,68.90
2018-09-03T12:09:08.049Z,67.60
2018-09-03T12:11:35.571Z,64.60
2018-09-03T12:14:08.001Z,64.20
2018-09-03T12:16:35.631Z,63.80
2018-09-03T12:19:03.329Z,61.40
2018-09-03T12:21:30.867Z,61.80
2018-09-03T12:23:58.396Z,61.20
2018-09-03T12:26:26.065Z,59.50
2018-09-03T12:28:53.632Z,61.20
2018-09-03T12:31:21.360Z,59.90
2018-09-03T12:33:49.122Z,58.90
2018-09-03T12:36:16.848Z,59.20
2018-09-03T12:38:44.360Z,58.70
2018-09-03T12:41:12.282Z,58.00
2018-09-03T12:43:40.027Z,59.30
2018-09-03T12:46:08.314Z,59.50
2018-09-03T12:48:35.958Z,58.10
2018-09-03T12:51:04.359Z,57.40
2018-09-03T12:53:32.523Z,58.70
2018-09-03T12:56:00.576Z,60.10
2018-09-03T12:58:28.395Z,60.90
2018-09-03T13:00:55.993Z,61.40
2018-09-03T13:03:23.547Z,62.20
2018-09-03T13:05:51.152Z,63.30
2018-09-03T13:08:18.819Z,64.20
2018-09-03T13:10:46.456Z,64.80
2018-09-03T13:13:14.056Z,64.80
2018-09-03T13:15:41.841Z,64.20
2018-09-03T13:18:09.780Z,64.60
2018-09-03T13:20:37.407Z,64.60
2018-09-03T13:23:05.321Z,63.30
2018-09-03T13:25:33.159Z,60.30
2018-09-03T13:28:00.796Z,59.80
2018-09-03T13:30:28.380Z,58.30
2018-09-03T13:32:56.139Z,58.00
2018-09-03T13:35:24.021Z,54.50
2018-09-03T13:37:51.696Z,48.20
2018-09-03T13:40:19.525Z,46.40
2018-09-03T13:42:47.110Z,43.30
2018-09-03T13:45:14.744Z,40.30
2018-09-03T13:47:42.289Z,37.60
2018-09-03T13:50:10.055Z,33.70
2018-09-03T13:52:37.824Z,31.30
2018-09-03T13:55:05.545Z,31.60
2018-09-03T13:57:33.168Z,29.30
2018-09-03T14:00:00.803Z,28.10
2018-09-03T14:02:28.632Z,27.30
2018-09-03T14:04:56.289Z,27.40
2018-09-03T14:07:23.816Z,27.00
2018-09-03T14:09:51.521Z,26.10
2018-09-03T14:12:19.360Z,26.90
2018-09-03T14:14:47.941Z,25.60
2018-09-03T14:17:15.658Z,27.00
2018-09-03T14:19:43.295Z,26.60
2018-09-03T14:22:10.958Z,25.80
2018-09-03T14:24:38.497Z,25.50
2018-09-03T14:27:06.163Z,23.90
2018-09-03T14:29:33.724Z,24.00
2018-09-03T14:32:01.268Z,23.90
2018-09-03T14:34:28.805Z,23.90
2018-09-03T14:36:56.400Z,23.00
2018-09-03T14:39:23.915Z,23.50
2018-09-03T14:41:51.451Z,23.90
2018-09-03T14:44:18.964Z,23.30
2018-09-03T14:46:46.750Z,23.10
2018-09-03T14:49:14.325Z,22.70
2018-09-03T14:51:41.984Z,22.80
2018-09-03T14:54:09.578Z,22.60
2018-09-03T14:56:37.248Z,23.00
2018-09-03T14:59:07.155Z,23.60
2018-09-03T15:01:34.755Z,25.50
2018-09-03T15:04:02.449Z,26.40
2018-09-03T15:06:30.140Z,27.90
2018-09-03T15:08:58.970Z,27.60
2018-09-03T15:11:26.875Z,27.60
2018-09-03T15:13:58.095Z,28.90
2018-09-03T15:16:27.492Z,29.70
2018-09-03T15:18:55.055Z,29.50
2018-09-03T15:21:22.632Z,29.30
2018-09-03T15:23:50.211Z,29.30
2018-09-03T15:26:17.838Z,29.80
2018-09-03T15:28:45.313Z,30.90
2018-09-03T15:31:12.927Z,31.60
2018-09-03T15:33:40.596Z,33.10
2018-09-03T15:36:10.358Z,32.10
2018-09-03T15:38:37.891Z,33.40
2018-09-03T15:41:06.072Z,33.90
2018-09-03T15:43:33.963Z,34.20
2018-09-03T15:46:01.550Z,34.40
2018-09-03T15:48:29.437Z,35.60
2018-09-03T15:50:57.273Z,34.70
2018-09-03T15:53:25.661Z,33.60
2018-09-03T15:55:53.473Z,35.30
2018-09-03T15:58:21.109Z,37.60
2018-09-03T16:00:48.735Z,36.60
2018-09-03T16:03:16.529Z,38.30
2018-09-03T16:05:44.335Z,40.10
2018-09-03T16:08:11.976Z,40.80
2018-09-03T16:10:39.955Z,41.50
2018-09-03T16:13:07.581Z,42.70
2018-09-03T16:15:35.176Z,42.70
2018-09-03T16:18:02.896Z,43.20
2018-09-03T16:20:30.603Z,44.40
2018-09-03T16:22:58.339Z,46.20
2018-09-03T16:25:26.025Z,46.80
2018-09-03T16:27:53.683Z,47.30
2018-09-03T16:30:21.184Z,48.50
2018-09-03T16:32:48.762Z,48.80
2018-09-03T16:35:16.340Z,50.00
2018-09-03T16:37:44.014Z,50.30
2018-09-03T16:40:11.632Z,50.30
2018-09-03T16:42:39.206Z,51.70
2018-09-03T16:45:06.849Z,52.60
2018-09-03T16:47:34.431Z,53.20
2018-09-03T16:50:02.082Z,53.70
2018-09-03T16:52:29.657Z,54.20
2018-09-03T16:54:57.216Z,54.20
2018-09-03T16:57:24.802Z,54.30
2018-09-03T16:59:52.384Z,54.80
2018-09-03T17:02:19.931Z,54.90
2018-09-03T17:04:47.498Z,54.90
2018-09-03T17:07:15.099Z,55.70
2018-09-03T17:09:42.685Z,56.00
2018-09-03T17:12:10.365Z,56.10
2018-09-03T17:14:37.946Z,56.40
2018-09-03T17:17:05.892Z,57.40
2018-09-03T17:19:33.485Z,57.20
2018-09-03T17:22:01.036Z,57.70
2018-09-03T17:24:28.656Z,58.00
2018-09-03T17:26:56.204Z,58.60
2018-09-03T17:29:23.855Z,59.00
2018-09-03T17:31:51.417Z,60.50
2018-09-03T17:34:18.979Z,64.00
2018-09-03T17:36:46.502Z,66.80
2018-09-03T17:39:14.089Z,68.30
2018-09-03T17:41:41.633Z,69.80
2018-09-03T17:44:09.230Z,70.90
2018-09-03T17:46:36.840Z,72.20
2018-09-03T17:49:04.386Z,72.80
2018-09-03T17:51:32.012Z,73.70
2018-09-03T17:53:59.577Z,73.30
2018-09-03T17:56:27.120Z,74.30
2018-09-03T17:58:54.751Z,74.60
2018-09-03T18:01:22.387Z,75.00
2018-09-03T18:03:50.051Z,76.10
2018-09-03T18:06:17.669Z,75.80
2018-09-03T18:08:45.263Z,75.60
2018-09-03T18:11:12.895Z,76.10
2018-09-03T18:13:40.478Z,76.50
2018-09-03T18:16:08.301Z,76.90
2018-09-03T18:18:35.844Z,77.30
2018-09-03T18:21:03.670Z,77.40
2018-09-03T18:23:31.361Z,77.80
2018-09-03T18:25:59.256Z,78.70
2018-09-03T18:28:27.186Z,79.10
2018-09-03T18:30:54.937Z,78.20
2018-09-03T18:33:22.608Z,78.60
2018-09-03T18:35:50.427Z,78.90
2018-09-03T18:38:18.130Z,78.90
2018-09-03T18:40:45.728Z,79.10
2018-09-03T18:43:13.282Z,79.10
2018-09-03T18:45:41.257Z,79.90
2018-09-03T18:48:08.959Z,80.00
2018-09-03T18:50:36.734Z,79.90
2018-09-03T18:53:05.369Z,79.10
2018-09-03T18:55:33.071Z,78.70
2018-09-03T18:58:00.640Z,79.30
2018-09-03T19:00:28.703Z,78.70
2018-09-03T19:02:56.735Z,79.30
2018-09-03T19:05:24.397Z,80.00
2018-09-03T19:07:52.573Z,80.80
2018-09-03T19:10:20.656Z,80.20
2018-09-03T19:12:48.614Z,80.60
2018-09-03T19:15:16.684Z,80.80
2018-09-03T19:17:44.394Z,81.40
2018-09-03T19:20:12.290Z,82.10
2018-09-03T19:22:40.337Z,83.00
2018-09-03T19:25:08.023Z,83.20
2018-09-03T19:27:36.127Z,83.80
2018-09-03T19:30:03.937Z,84.10
2018-09-03T19:32:31.762Z,84.90
2018-09-03T19:34:59.415Z,85.10
2018-09-03T19:37:26.963Z,85.30
2018-09-03T19:39:54.610Z,85.30
2018-09-03T19:42:22.224Z,85.80
2018-09-03T19:44:49.938Z,86.00
2018-09-03T19:47:17.752Z,86.20
2018-09-03T19:49:45.500Z,86.90
2018-09-03T19:52:13.171Z,87.10
2018-09-03T19:54:40.769Z,87.30
2018-09-03T19:57:08.333Z,87.30
2018-09-03T19:59:36.248Z,87.50
2018-09-03T20:02:03.850Z,87.50
2018-09-03T20:04:31.665Z,87.70
2018-09-03T20:06:59.315Z,88.10
2018-09-03T20:09:26.958Z,88.40
2018-09-03T20:11:54.808Z,88.80
2018-09-03T20:14:22.696Z,89.00
2018-09-03T20:16:50.381Z,89.20
2018-09-03T20:19:17.967Z,89.00
2018-09-03T20:21:45.524Z,89.40
2018-09-03T20:24:13.131Z,89.40
2018-09-03T20:26:41.144Z,89.40
2018-09-03T20:29:08.789Z,89.40
2018-09-03T20:31:36.440Z,89.00
2018-09-03T20:34:04.113Z,89.00
2018-09-03T20:36:31.657Z,89.20
2018-09-03T20:38:59.329Z,89.90
2018-09-03T20:41:27.125Z,90.80
2018-09-03T20:43:54.669Z,91.20
2018-09-03T20:46:22.347Z,91.40
2018-09-03T20:48:50.013Z,91.50
2018-09-03T20:51:17.623Z,91.70
2018-09-03T20:53:45.175Z,91.70
2018-09-03T20:56:12.764Z,91.90
2018-09-03T20:58:40.375Z,92.20
2018-09-03T21:01:07.993Z,92.20
2018-09-03T21:03:35.563Z,92.20
2018-09-03T21:06:03.153Z,92.20
2018-09-03T21:08:30.807Z,92.10
2018-09-03T21:10:58.625Z,91.90
2018-09-03T21:13:26.618Z,91.80
2018-09-03T21:15:54.263Z,91.80
2018-09-03T21:18:21.895Z,91.70
2018-09-03T21:20:49.438Z,91.60
2018-09-03T21:23:16.972Z,91.60
2018-09-03T21:25:44.594Z,91.50
2018-09-03T21:28:12.167Z,91.60
2018-09-03T21:30:39.745Z,91.50
2018-09-03T21:33:07.297Z,91.40
2018-09-03T21:35:34.858Z,91.30
2018-09-03T21:38:02.533Z,91.30
2018-09-03T21:40:30.158Z,91.30
2018-09-03T21:42:57.751Z,91.40
2018-09-03T21:45:25.337Z,91.30
2018-09-03T21:47:52.888Z,91.30
2018-09-03T21:50:20.523Z,91.40
2018-09-03T21:52:48.133Z,91.40
2018-09-03T21:55:15.721Z,91.50
2018-09-03T21:57:43.246Z,91.90
2018-09-03T22:00:11.254Z,92.20
2018-09-03T22:02:38.864Z,92.50
2018-09-03T22:05:06.527Z,92.90
2018-09-03T22:07:34.543Z,93.00
2018-09-03T22:10:02.233Z,93.10
2018-09-03T22:12:29.830Z,93.40
2018-09-03T22:14:57.412Z,93.60
2018-09-03T22:17:24.943Z,93.60
2018-09-03T22:19:52.520Z,93.90
2018-09-03T22:22:20.085Z,93.80
2018-09-03T22:24:47.683Z,93.70
2018-09-03T22:27:15.208Z,93.60
2018-09-03T22:29:42.855Z,93.50
2018-09-03T22:32:10.444Z,93.40
2018-09-03T22:34:38.000Z,93.50
2018-09-03T22:37:05.570Z,93.70
2018-09-03T22:39:33.124Z,93.90
2018-09-03T22:42:00.700Z,93.90
2018-09-03T22:44:28.247Z,93.60
2018-09-03T22:46:55.823Z,93.20
2018-09-03T22:49:23.451Z,93.00
2018-09-03T22:51:52.152Z,92.90
2018-09-03T22:54:19.819Z,92.90
2018-09-03T22:56:47.487Z,93.10
2018-09-03T22:59:14.993Z,93.30
2018-09-03T23:01:42.551Z,93.50
2018-09-03T23:04:10.264Z,93.50
2018-09-03T23:06:37.878Z,93.60
2018-09-03T23:09:06.421Z,93.90
2018-09-03T23:11:34.152Z,94.10
2018-09-03T23:14:01.946Z,94.40
2018-09-03T23:16:29.718Z,94.60
2018-09-03T23:18:57.265Z,94.70
2018-09-03T23:21:25.007Z,94.90
2018-09-03T23:23:52.533Z,94.70
2018-09-03T23:26:20.095Z,94.30
2018-09-03T23:28:47.634Z,94.30
2018-09-03T23:31:15.184Z,94.10
2018-09-03T23:33:42.721Z,93.90
2018-09-03T23:36:10.305Z,93.90
2018-09-03T23:38:37.896Z,93.90
2018-09-03T23:41:05.467Z,93.90
2018-09-03T23:43:33.101Z,93.90
2018-09-03T23:46:00.675Z,93.90
2018-09-03T23:48:28.326Z,93.80
2018-09-03T23:50:55.974Z,93.80
2018-09-03T23:53:23.595Z,93.80
2018-09-03T23:55:51.195Z,93.80
2018-09-03T23:58:18.736Z,93.90
